Bucak, Turkey
Current Conditions -  °F | °C
As of 11:20 AM on Saturday 29 Nov 2014 (Local Time) from LTFC Reporting Station
Broken Clouds Broken Clouds  
Wind Chill: 46°   Ceiling: 10000
Heat Index: 46°   Visibility: 5mi
Dew Point: 37°   Wind: 2mph
Humidity: 71%   Direction: NA
Pressure: 30.3"   Gusts: NA
Location:  37.46°N, 30.58°E
Report Text: LTFC 290820Z VRB02KT 8000 SCT035 BKN100 08/03 Q1026
Loading
Personal Weather Stations






























Interactive Weather Map New forecast layout! Learn more

10-Day Weather Forecast

Advertisements
Track Severe Weather on mobile